Time;durP1;ratioP1;P1;durP2;ratioP2;P2;SDS_P1;SDS_P2;PMS_P1;PMS_P2;Temp;Humidity;BMP_temperature;BMP_pressure;BME280_temperature;BME280_humidity;BME280_pressure;Samples;Min_cycle;Max_cycle;Signal;HPM_P1;HPM_P2
2022/09/29 00:01:26;;;;;;;4.07;3.67;;;6.10;99.90;;;;;;5030529;28;20052;-77
2022/09/29 00:03:52;;;;;;;3.78;3.25;;;6.10;99.90;;;;;;5013863;28;20056;-77
2022/09/29 00:06:18;;;;;;;3.95;3.40;;;6.00;99.90;;;;;;5010471;28;20132;-77
2022/09/29 00:08:44;;;;;;;4.43;3.50;;;6.00;99.90;;;;;;5010631;28;20034;-77
2022/09/29 00:11:13;;;;;;;3.67;3.30;;;6.00;99.90;;;;;;5021890;28;20033;-77
2022/09/29 00:13:39;;;;;;;3.42;3.13;;;5.90;99.90;;;;;;5018750;28;20046;-77
2022/09/29 00:16:05;;;;;;;4.05;3.60;;;5.90;99.90;;;;;;4994347;28;20038;-78
2022/09/29 00:18:32;;;;;;;3.88;3.47;;;5.90;99.90;;;;;;5009729;28;20045;-78
2022/09/29 00:21:09;;;;;;;4.07;3.35;;;5.80;99.90;;;;;;5009669;28;20038;-78
2022/09/29 00:23:36;;;;;;;4.20;3.60;;;5.80;99.90;;;;;;5009865;28;20045;-77
2022/09/29 00:26:06;;;;;;;4.82;4.32;;;5.80;99.90;;;;;;5013721;28;20037;-77
2022/09/29 00:28:33;;;;;;;4.63;4.03;;;5.80;99.90;;;;;;5029707;28;20041;-77
2022/09/29 00:31:00;;;;;;;4.93;4.03;;;5.80;99.90;;;;;;5030036;28;20120;-77
2022/09/29 00:33:31;;;;;;;4.95;4.25;;;5.80;99.90;;;;;;5006800;28;20045;-77
2022/09/29 00:36:12;;;;;;;4.30;3.88;;;5.90;99.90;;;;;;5000849;28;20036;-77
2022/09/29 00:38:39;;;;;;;4.05;3.60;;;5.80;99.90;;;;;;5013138;28;20081;-77
2022/09/29 00:41:05;;;;;;;4.93;3.50;;;5.80;99.90;;;;;;5021402;28;20042;-77
2022/09/29 00:44:12;;;;;;;4.00;3.47;;;5.80;99.90;;;;;;4997495;28;20062;-77
2022/09/29 00:46:59;;;;;;;3.35;3.05;;;5.80;99.90;;;;;;5000758;28;20053;-77
2022/09/29 00:49:28;;;;;;;3.97;3.30;;;5.70;99.90;;;;;;5005585;28;20030;-77
2022/09/29 00:52:14;;;;;;;4.07;3.28;;;5.70;99.90;;;;;;5013196;28;20584;-77
2022/09/29 00:54:56;;;;;;;4.20;3.75;;;5.70;99.90;;;;;;5013463;28;20041;-77
2022/09/29 00:57:27;;;;;;;3.35;2.90;;;5.70;99.90;;;;;;5020724;28;20403;-77
2022/09/29 01:00:02;;;;;;;3.35;3.05;;;5.60;99.90;;;;;;5040407;28;20041;-77
2022/09/29 01:02:31;;;;;;;4.78;4.03;;;5.60;99.90;;;;;;5003301;28;20064;-77
2022/09/29 01:04:58;;;;;;;5.13;4.60;;;5.60;99.90;;;;;;5013285;28;20038;-77
2022/09/29 01:07:26;;;;;;;5.28;4.78;;;5.50;99.90;;;;;;4996733;28;20041;-77
2022/09/29 01:09:55;;;;;;;4.82;4.20;;;5.50;99.90;;;;;;5013190;28;20091;-77
2022/09/29 01:12:21;;;;;;;4.97;4.03;;;5.50;99.90;;;;;;5021048;28;20579;-77
2022/09/29 01:14:47;;;;;;;3.53;3.10;;;5.50;99.90;;;;;;5013461;28;20124;-77
2022/09/29 01:17:13;;;;;;;3.88;3.47;;;5.50;99.90;;;;;;5017757;28;20088;-77
2022/09/29 01:20:03;;;;;;;4.70;4.20;;;5.50;99.90;;;;;;4999655;28;20069;-77
2022/09/29 01:22:41;;;;;;;3.85;3.38;;;5.50;99.90;;;;;;5013098;28;20073;-77
2022/09/29 01:25:26;;;;;;;4.70;4.20;;;5.40;99.90;;;;;;5012791;28;20079;-77
2022/09/29 01:28:03;;;;;;;4.30;3.90;;;5.40;99.90;;;;;;5053223;28;20041;-77
2022/09/29 01:30:50;;;;;;;4.60;3.88;;;5.30;99.90;;;;;;5011991;28;20069;-77
2022/09/29 01:33:15;;;;;;;4.13;3.60;;;5.30;99.90;;;;;;5006678;28;20042;-77
2022/09/29 01:35:41;;;;;;;4.28;3.70;;;5.20;99.90;;;;;;5013036;28;20080;-77
2022/09/29 01:38:12;;;;;;;4.45;3.95;;;5.20;99.90;;;;;;5015016;28;20447;-77
2022/09/29 01:40:54;;;;;;;4.20;3.55;;;5.20;99.90;;;;;;5003414;28;20043;-77
2022/09/29 01:43:26;;;;;;;4.20;3.38;;;5.20;99.90;;;;;;5012827;28;20124;-77
2022/09/29 01:46:08;;;;;;;3.70;3.30;;;5.20;99.90;;;;;;5011035;28;20057;-77
2022/09/29 01:48:38;;;;;;;4.35;3.25;;;5.30;99.90;;;;;;5012291;28;20477;-77
2022/09/29 01:51:08;;;;;;;4.13;3.58;;;5.20;99.90;;;;;;5020252;28;20084;-77
2022/09/29 01:53:43;;;;;;;4.00;3.50;;;5.20;99.90;;;;;;5012390;28;20534;-77
2022/09/29 01:56:15;;;;;;;3.65;3.33;;;5.20;99.90;;;;;;5012342;28;20038;-77
2022/09/29 01:58:50;;;;;;;4.72;3.97;;;5.10;99.90;;;;;;5012208;28;20034;-77
2022/09/29 02:01:19;;;;;;;3.70;3.30;;;5.10;99.90;;;;;;5012418;28;20041;-76
2022/09/29 02:04:10;;;;;;;3.40;3.00;;;5.10;99.90;;;;;;5020902;28;20034;-77
2022/09/29 02:06:47;;;;;;;3.40;3.00;;;5.00;99.90;;;;;;5014790;28;20057;-77
2022/09/29 02:09:22;;;;;;;3.15;2.80;;;5.00;99.90;;;;;;5005583;28;20038;-77
2022/09/29 02:11:50;;;;;;;3.55;3.00;;;5.00;99.90;;;;;;5003584;28;20048;-77
2022/09/29 02:14:22;;;;;;;3.53;3.15;;;5.00;99.90;;;;;;5011927;28;20120;-77
2022/09/29 02:16:56;;;;;;;4.40;3.20;;;4.90;99.90;;;;;;4995593;28;20392;-77
2022/09/29 02:19:24;;;;;;;3.63;3.22;;;4.90;99.90;;;;;;5026634;28;20112;-77
2022/09/29 02:21:54;;;;;;;5.03;3.45;;;4.90;99.90;;;;;;5019676;28;20083;-77
2022/09/29 02:24:21;;;;;;;4.07;3.47;;;4.90;99.90;;;;;;4995402;28;20042;-77
2022/09/29 02:26:47;;;;;;;3.70;3.30;;;4.90;99.90;;;;;;4995023;28;20404;-77
2022/09/29 02:29:13;;;;;;;3.60;3.30;;;4.80;99.90;;;;;;5011398;28;20040;-77
2022/09/29 02:31:39;;;;;;;3.45;3.15;;;4.80;99.90;;;;;;5019462;28;20045;-77
2022/09/29 02:34:09;;;;;;;3.60;3.25;;;4.80;99.90;;;;;;4995324;28;20131;-77
2022/09/29 02:36:50;;;;;;;3.97;3.17;;;4.80;99.90;;;;;;5010675;28;20061;-78
2022/09/29 02:39:31;;;;;;;4.32;3.33;;;4.80;99.90;;;;;;5002051;28;20046;-78
2022/09/29 02:42:23;;;;;;;3.92;3.28;;;4.80;99.90;;;;;;5013433;28;20046;-77
2022/09/29 02:45:11;;;;;;;3.45;3.13;;;4.80;99.90;;;;;;5011475;28;20121;-77
2022/09/29 02:48:15;;;;;;;3.50;3.10;;;4.70;99.90;;;;;;4994275;28;20049;-77
2022/09/29 02:50:49;;;;;;;3.72;3.08;;;4.70;99.90;;;;;;4995125;28;20038;-77
2022/09/29 02:53:21;;;;;;;3.55;3.25;;;4.70;99.90;;;;;;5011386;28;20130;-77
2022/09/29 02:55:53;;;;;;;3.28;2.97;;;4.70;99.90;;;;;;4997368;28;20042;-77
2022/09/29 02:58:50;;;;;;;4.10;3.50;;;4.60;99.90;;;;;;4993739;28;20117;-77
2022/09/29 03:01:16;;;;;;;3.70;3.33;;;4.50;99.90;;;;;;4963085;28;20059;-77
2022/09/29 03:03:42;;;;;;;4.32;3.28;;;4.50;99.90;;;;;;5011196;28;20042;-77
2022/09/29 03:06:09;;;;;;;3.90;3.50;;;4.50;99.90;;;;;;5010803;28;20417;-77
2022/09/29 03:08:35;;;;;;;3.78;3.22;;;4.50;99.90;;;;;;4993399;28;20484;-77
2022/09/29 03:11:01;;;;;;;3.47;3.13;;;4.50;99.90;;;;;;5030724;28;20064;-77
2022/09/29 03:13:26;;;;;;;4.03;3.63;;;4.50;99.90;;;;;;5020367;28;20096;-77
2022/09/29 03:15:52;;;;;;;3.58;3.13;;;4.40;99.90;;;;;;5010852;28;20038;-77
2022/09/29 03:18:18;;;;;;;3.72;3.33;;;4.40;99.90;;;;;;4993218;28;20121;-77
2022/09/29 03:20:43;;;;;;;4.15;3.17;;;4.40;99.90;;;;;;5010247;28;20038;-77
2022/09/29 03:23:09;;;;;;;5.45;2.83;;;4.40;99.90;;;;;;5019194;28;20041;-77
2022/09/29 03:25:35;;;;;;;4.03;3.35;;;4.40;99.90;;;;;;5010907;28;20085;-77
2022/09/29 03:28:00;;;;;;;5.15;2.97;;;4.40;99.90;;;;;;4993506;28;20037;-77
2022/09/29 03:30:26;;;;;;;4.18;3.63;;;4.40;99.90;;;;;;5043575;28;20049;-77
2022/09/29 03:32:52;;;;;;;3.83;3.40;;;4.40;99.90;;;;;;5010707;28;20454;-77
2022/09/29 03:35:18;;;;;;;3.95;3.55;;;4.40;99.90;;;;;;5010717;28;20052;-77
2022/09/29 03:37:45;;;;;;;4.18;3.78;;;4.30;99.90;;;;;;5002883;28;20033;-77
2022/09/29 03:40:11;;;;;;;3.97;3.22;;;4.30;99.90;;;;;;5010174;28;20061;-77
2022/09/29 03:42:36;;;;;;;3.92;3.53;;;4.30;99.90;;;;;;4994510;28;20049;-77
2022/09/29 03:45:02;;;;;;;4.95;4.00;;;4.30;99.90;;;;;;4994253;28;20038;-77
2022/09/29 03:47:28;;;;;;;4.85;3.92;;;4.30;99.90;;;;;;5012682;28;20038;-77
2022/09/29 03:49:53;;;;;;;4.78;4.28;;;4.30;99.90;;;;;;4994295;28;20042;-77
2022/09/29 03:52:19;;;;;;;4.80;4.30;;;4.30;99.90;;;;;;4994173;28;20411;-77
2022/09/29 03:54:44;;;;;;;7.30;3.22;;;4.30;99.90;;;;;;5010604;28;20088;-78
2022/09/29 03:57:11;;;;;;;4.45;3.20;;;4.30;99.90;;;;;;4994234;28;20452;-77
2022/09/29 03:59:36;;;;;;;5.35;3.22;;;4.30;99.90;;;;;;5009526;28;20041;-77
2022/09/29 04:02:02;;;;;;;5.03;3.17;;;4.30;99.90;;;;;;5019034;28;20045;-77
2022/09/29 04:04:28;;;;;;;4.00;2.97;;;4.20;99.90;;;;;;4993785;28;20165;-77
2022/09/29 04:06:53;;;;;;;3.38;3.08;;;4.20;99.90;;;;;;5043040;28;20048;-77
2022/09/29 04:09:19;;;;;;;4.35;2.88;;;4.20;99.90;;;;;;5011480;28;20459;-77
2022/09/29 04:11:44;;;;;;;4.28;3.00;;;4.20;99.90;;;;;;5013946;28;20081;-77
2022/09/29 04:14:10;;;;;;;3.92;3.25;;;4.10;99.90;;;;;;5038574;28;20465;-77
2022/09/29 04:16:36;;;;;;;4.82;4.10;;;4.10;99.90;;;;;;5037838;28;20136;-77
2022/09/29 04:19:01;;;;;;;6.65;3.00;;;4.10;99.90;;;;;;5010139;28;20077;-78
2022/09/29 04:21:27;;;;;;;5.05;3.58;;;4.10;99.90;;;;;;4999717;28;20045;-78
2022/09/29 04:23:53;;;;;;;3.90;3.40;;;4.10;99.90;;;;;;5017555;28;20038;-78
2022/09/29 04:26:19;;;;;;;4.45;4.05;;;4.10;99.90;;;;;;5017502;28;20125;-78
2022/09/29 04:28:45;;;;;;;6.75;3.78;;;4.10;99.90;;;;;;5024750;28;20048;-78
2022/09/29 04:31:11;;;;;;;5.18;4.40;;;4.10;99.90;;;;;;5000887;28;20042;-78
2022/09/29 04:33:38;;;;;;;5.75;4.95;;;4.20;99.90;;;;;;5000820;28;20057;-78
2022/09/29 04:36:04;;;;;;;8.52;4.10;;;4.20;99.90;;;;;;5017563;28;20476;-78
2022/09/29 04:38:30;;;;;;;5.72;4.63;;;4.20;99.90;;;;;;5000975;28;20516;-78
2022/09/29 04:40:56;;;;;;;5.18;4.68;;;4.20;99.90;;;;;;5015106;28;20145;-78
2022/09/29 04:43:22;;;;;;;5.15;4.65;;;4.20;99.90;;;;;;5025325;28;20050;-78
2022/09/29 04:45:47;;;;;;;6.15;4.70;;;4.20;99.90;;;;;;4999857;28;20145;-78
2022/09/29 04:48:13;;;;;;;7.78;5.30;;;4.20;99.90;;;;;;4981756;28;20042;-78
2022/09/29 04:50:39;;;;;;;5.95;5.05;;;4.20;99.90;;;;;;5000058;28;20473;-78
2022/09/29 04:53:06;;;;;;;5.18;3.63;;;4.20;99.90;;;;;;5029917;28;20033;-78
2022/09/29 04:55:31;;;;;;;5.10;4.60;;;4.20;99.90;;;;;;5031775;28;20037;-78
2022/09/29 04:57:57;;;;;;;4.18;3.78;;;4.30;99.90;;;;;;5014293;28;20499;-78
2022/09/29 05:00:22;;;;;;;5.22;4.72;;;4.20;99.90;;;;;;5014165;28;20084;-78
2022/09/29 05:02:48;;;;;;;8.52;4.70;;;4.20;99.90;;;;;;4997613;28;20038;-78
2022/09/29 05:05:14;;;;;;;5.45;4.95;;;4.30;99.90;;;;;;5028010;28;20038;-78
2022/09/29 05:07:40;;;;;;;5.18;4.68;;;4.30;99.90;;;;;;5034579;28;20484;-78
2022/09/29 05:10:07;;;;;;;4.70;3.53;;;4.20;99.90;;;;;;5034664;28;20394;-78
2022/09/29 05:12:33;;;;;;;5.07;4.57;;;4.20;99.90;;;;;;4998209;28;20042;-79
2022/09/29 05:14:59;;;;;;;5.03;4.53;;;4.20;99.90;;;;;;5006520;28;20033;-81
2022/09/29 05:17:24;;;;;;;4.93;4.32;;;4.20;99.90;;;;;;4997236;28;20397;-79
2022/09/29 05:19:50;;;;;;;4.90;4.40;;;4.20;99.90;;;;;;5007378;28;20084;-79
2022/09/29 05:22:15;;;;;;;6.10;4.38;;;4.20;99.90;;;;;;5033455;28;20153;-79
2022/09/29 05:24:41;;;;;;;5.63;4.82;;;4.20;99.90;;;;;;5022465;28;20400;-79
2022/09/29 05:27:06;;;;;;;5.70;5.10;;;4.20;99.90;;;;;;4996109;28;20046;-78
2022/09/29 05:29:32;;;;;;;5.20;4.70;;;4.20;99.90;;;;;;5013680;28;20084;-79
2022/09/29 05:31:58;;;;;;;5.13;4.30;;;4.20;99.90;;;;;;5032497;28;20038;-78
2022/09/29 05:34:23;;;;;;;6.43;4.40;;;4.20;99.90;;;;;;5006312;28;20034;-76
2022/09/29 05:36:49;;;;;;;6.22;4.65;;;4.20;99.90;;;;;;5004498;28;20038;-78
2022/09/29 05:39:16;;;;;;;6.05;4.25;;;4.20;99.90;;;;;;5013015;28;20053;-78
2022/09/29 05:41:41;;;;;;;5.93;5.30;;;4.20;99.90;;;;;;5010404;28;20551;-78
2022/09/29 05:44:07;;;;;;;5.43;4.93;;;4.20;99.90;;;;;;5015303;28;20120;-78
2022/09/29 05:46:32;;;;;;;5.28;4.72;;;4.20;99.90;;;;;;5013228;28;20123;-77
2022/09/29 05:48:58;;;;;;;5.05;4.55;;;4.20;99.90;;;;;;5043819;28;20503;-77
2022/09/29 05:51:27;;;;;;;5.50;4.90;;;4.20;99.90;;;;;;5043719;28;20045;-76
2022/09/29 05:53:53;;;;;;;5.47;4.97;;;4.10;99.90;;;;;;5012955;28;20484;-76
2022/09/29 05:56:24;;;;;;;5.40;4.90;;;4.10;99.90;;;;;;5021798;28;20041;-76
2022/09/29 05:58:50;;;;;;;6.35;4.80;;;4.10;99.90;;;;;;5029950;28;20041;-77
2022/09/29 06:01:19;;;;;;;6.28;5.07;;;4.10;99.90;;;;;;5019596;28;20045;-77
2022/09/29 06:03:44;;;;;;;5.47;4.93;;;4.10;99.90;;;;;;5023658;28;20041;-76
2022/09/29 06:06:15;;;;;;;5.70;5.20;;;4.10;99.90;;;;;;5011863;28;20079;-77
2022/09/29 06:08:43;;;;;;;5.35;4.85;;;4.10;99.90;;;;;;5012110;28;20045;-77
2022/09/29 06:11:17;;;;;;;5.28;4.68;;;4.10;99.90;;;;;;5013122;28;20033;-76
2022/09/29 06:13:46;;;;;;;5.07;4.57;;;4.10;99.90;;;;;;5052983;28;20041;-76
2022/09/29 06:16:12;;;;;;;5.72;5.00;;;4.10;99.90;;;;;;4995754;28;20034;-77
2022/09/29 06:18:38;;;;;;;6.25;4.95;;;4.10;99.90;;;;;;5011728;28;20088;-76
2022/09/29 06:21:07;;;;;;;5.53;5.03;;;4.20;99.90;;;;;;4994710;28;20484;-76
2022/09/29 06:23:33;;;;;;;5.82;5.07;;;4.20;99.90;;;;;;5039653;28;20468;-77
2022/09/29 06:26:00;;;;;;;6.15;5.00;;;4.20;99.90;;;;;;4996980;28;20038;-76
2022/09/29 06:28:27;;;;;;;5.32;4.82;;;4.20;99.90;;;;;;5012508;28;20050;-78
2022/09/29 06:31:02;;;;;;;5.03;4.53;;;4.20;99.90;;;;;;5016343;28;20104;-78
2022/09/29 06:33:28;;;;;;;7.15;4.60;;;4.20;99.90;;;;;;5043730;28;20037;-78
2022/09/29 06:38:39;;;;;;;5.50;4.80;;;4.20;99.90;;;;;;5011276;28;20048;-77
2022/09/29 06:41:05;;;;;;;5.28;4.78;;;4.30;99.90;;;;;;5011763;28;20042;-77
2022/09/29 06:43:31;;;;;;;5.53;4.88;;;4.30;99.90;;;;;;5011630;28;20046;-78
2022/09/29 06:45:57;;;;;;;5.72;4.30;;;4.30;99.90;;;;;;4995365;28;20068;-77
2022/09/29 06:48:22;;;;;;;5.68;4.57;;;4.40;99.90;;;;;;5011262;28;20066;-77
2022/09/29 06:50:48;;;;;;;5.75;4.97;;;4.40;99.90;;;;;;4995187;28;20029;-78
2022/09/29 06:53:13;;;;;;;6.05;5.45;;;4.50;99.90;;;;;;5011545;28;20038;-78
2022/09/29 06:55:39;;;;;;;5.82;5.22;;;4.50;99.90;;;;;;5011533;28;20632;-77
2022/09/29 06:58:05;;;;;;;6.53;5.43;;;4.50;99.90;;;;;;4995096;28;20038;-77
2022/09/29 07:00:32;;;;;;;6.38;5.57;;;4.60;99.90;;;;;;5011487;28;20045;-77
2022/09/29 07:02:57;;;;;;;6.63;5.97;;;4.60;99.90;;;;;;5011400;28;20124;-77
2022/09/29 07:05:23;;;;;;;7.20;6.50;;;4.70;99.90;;;;;;5011388;28;20129;-78
2022/09/29 07:07:48;;;;;;;7.38;5.97;;;4.70;99.90;;;;;;5011695;28;20050;-77
2022/09/29 07:10:14;;;;;;;7.43;6.30;;;4.80;99.90;;;;;;5011391;28;20121;-77
2022/09/29 07:12:44;;;;;;;7.22;6.40;;;4.80;99.90;;;;;;5011659;28;20129;-77
2022/09/29 07:15:09;;;;;;;7.35;6.47;;;4.90;99.90;;;;;;4995082;28;20038;-77
2022/09/29 07:17:35;;;;;;;8.15;7.28;;;5.00;99.90;;;;;;5011126;28;20044;-78
2022/09/29 07:20:00;;;;;;;7.65;6.65;;;5.10;99.90;;;;;;5011573;28;20042;-78
2022/09/29 07:22:26;;;;;;;7.97;6.97;;;5.20;99.90;;;;;;4994683;28;20631;-78
2022/09/29 07:24:52;;;;;;;7.75;6.95;;;5.20;99.90;;;;;;4994810;28;20492;-78
2022/09/29 07:27:22;;;;;;;8.48;6.82;;;5.40;99.90;;;;;;4994697;28;20037;-78
2022/09/29 07:29:49;;;;;;;8.07;6.95;;;5.40;99.90;;;;;;5011178;28;20382;-78
2022/09/29 07:32:14;;;;;;;7.70;6.82;;;5.50;99.90;;;;;;5011039;28;20275;-78
2022/09/29 07:34:40;;;;;;;7.53;6.72;;;5.60;99.90;;;;;;4994645;28;20108;-78
2022/09/29 07:37:06;;;;;;;8.15;7.07;;;5.60;99.90;;;;;;5010993;28;20044;-78
2022/09/29 07:39:31;;;;;;;7.35;6.47;;;5.70;99.90;;;;;;5010979;28;20058;-78
2022/09/29 07:41:57;;;;;;;8.55;7.15;;;5.80;99.90;;;;;;4994789;28;20152;-78
2022/09/29 07:44:23;;;;;;;8.82;6.75;;;5.90;99.90;;;;;;5010065;28;20050;-77
2022/09/29 07:46:49;;;;;;;7.45;6.60;;;5.90;99.90;;;;;;5011006;28;20403;-77
2022/09/29 07:49:15;;;;;;;8.35;7.45;;;6.00;99.90;;;;;;5010883;28;20045;-77
2022/09/29 07:51:40;;;;;;;7.80;6.72;;;6.10;99.90;;;;;;5010810;28;20053;-78
2022/09/29 07:54:06;;;;;;;7.82;6.18;;;6.10;99.90;;;;;;5010732;28;20033;-77
2022/09/29 07:56:32;;;;;;;8.63;6.95;;;6.20;99.90;;;;;;5010506;28;20377;-77
2022/09/29 07:58:58;;;;;;;8.70;7.55;;;6.40;99.90;;;;;;5010432;28;20049;-77
2022/09/29 08:01:23;;;;;;;10.45;7.78;;;6.50;99.90;;;;;;4994358;28;20037;-77
2022/09/29 08:03:54;;;;;;;9.18;7.93;;;6.60;99.90;;;;;;5010813;28;20273;-77
2022/09/29 08:06:21;;;;;;;9.02;7.75;;;6.80;99.90;;;;;;5010927;28;20444;-77
2022/09/29 08:08:47;;;;;;;9.70;7.97;;;6.90;99.90;;;;;;5010164;28;20049;-77
2022/09/29 08:11:16;;;;;;;9.20;7.60;;;7.00;99.90;;;;;;5010854;28;20034;-77
2022/09/29 08:13:41;;;;;;;8.68;7.70;;;7.10;99.90;;;;;;5010572;28;20128;-77
2022/09/29 08:16:11;;;;;;;8.70;7.30;;;7.20;99.90;;;;;;4994211;28;20117;-77
2022/09/29 08:18:37;;;;;;;8.27;7.47;;;7.30;99.90;;;;;;5010112;28;20126;-77
2022/09/29 08:21:04;;;;;;;7.93;7.13;;;7.40;99.90;;;;;;4994284;28;20489;-77
2022/09/29 08:23:33;;;;;;;7.70;6.90;;;7.40;99.90;;;;;;4994467;28;20132;-77
2022/09/29 08:26:14;;;;;;;7.07;6.30;;;7.50;99.90;;;;;;5010726;28;20041;-77
2022/09/29 08:28:41;;;;;;;7.10;6.38;;;7.60;99.90;;;;;;5010196;28;20038;-77
2022/09/29 08:31:10;;;;;;;7.68;6.78;;;7.70;99.90;;;;;;4993973;28;20053;-77
2022/09/29 08:33:36;;;;;;;7.50;6.80;;;7.70;99.90;;;;;;5010329;28;20048;-77
2022/09/29 08:36:05;;;;;;;8.30;7.43;;;7.80;99.90;;;;;;5010322;28;20037;-77
2022/09/29 08:38:31;;;;;;;7.03;6.07;;;7.80;99.90;;;;;;5010145;28;20048;-77
2022/09/29 08:41:02;;;;;;;6.85;6.15;;;7.80;99.90;;;;;;4993902;28;20053;-77
2022/09/29 08:43:39;;;;;;;6.97;6.28;;;7.90;99.90;;;;;;5010189;28;20045;-77
2022/09/29 08:46:20;;;;;;;7.63;6.70;;;7.90;99.90;;;;;;5010204;28;20041;-77
2022/09/29 08:48:46;;;;;;;6.90;5.95;;;8.00;99.90;;;;;;4993626;28;20638;-77
2022/09/29 08:51:29;;;;;;;8.27;6.82;;;8.10;99.90;;;;;;4994118;28;20041;-78
2022/09/29 08:54:01;;;;;;;8.23;7.10;;;8.20;99.90;;;;;;4993945;28;20132;-78
2022/09/29 08:56:27;;;;;;;9.80;8.02;;;8.30;99.90;;;;;;5012793;28;20042;-77
2022/09/29 08:58:52;;;;;;;8.43;7.18;;;8.50;99.90;;;;;;4997147;28;20103;-77
2022/09/29 09:01:26;;;;;;;7.80;6.97;;;8.80;99.90;;;;;;4997752;28;20472;-77
2022/09/29 09:04:14;;;;;;;8.57;7.50;;;9.20;99.90;;;;;;4997207;28;20038;-77
2022/09/29 09:07:02;;;;;;;7.90;6.80;;;9.50;99.90;;;;;;4997456;28;20042;-77
2022/09/29 09:09:55;;;;;;;7.10;6.38;;;10.00;99.90;;;;;;5013272;28;20046;-77
2022/09/29 09:12:38;;;;;;;6.93;6.20;;;10.30;99.90;;;;;;5013350;28;20034;-77
2022/09/29 09:15:36;;;;;;;7.28;6.20;;;10.30;99.90;;;;;;5013454;28;20033;-77
2022/09/29 09:18:09;;;;;;;7.00;6.30;;;10.40;99.90;;;;;;4980474;28;20081;-78
2022/09/29 09:20:37;;;;;;;;;;;10.40;99.90;;;;;;4997586;28;20046;-77
2022/09/29 09:23:09;;;;;;;6.80;6.10;;;10.40;99.90;;;;;;5013600;28;20372;-78
2022/09/29 09:25:40;;;;;;;6.30;5.70;;;10.50;99.90;;;;;;5013750;28;20077;-78
2022/09/29 09:28:23;;;;;;;5.50;5.00;;;10.60;99.90;;;;;;5013482;28;20085;-77
2022/09/29 09:31:05;;;;;;;6.28;5.50;;;10.60;99.90;;;;;;5013752;28;20566;-77
2022/09/29 09:33:58;;;;;;;5.18;4.68;;;10.70;99.90;;;;;;5013551;28;20506;-77
2022/09/29 09:36:37;;;;;;;5.85;5.25;;;10.80;99.90;;;;;;5013858;28;20048;-78
2022/09/29 09:39:20;;;;;;;5.68;5.18;;;10.90;99.90;;;;;;5013599;28;20121;-77
2022/09/29 09:41:49;;;;;;;5.57;4.90;;;11.10;99.90;;;;;;5014211;28;20124;-78
2022/09/29 09:44:24;;;;;;;5.25;4.63;;;11.20;99.90;;;;;;4996923;28;20038;-78
2022/09/29 09:46:58;;;;;;;5.30;4.80;;;11.30;99.90;;;;;;4997261;28;20030;-78
2022/09/29 09:49:38;;;;;;;5.50;5.00;;;11.30;99.90;;;;;;5013263;28;20041;-78
2022/09/29 09:52:03;;;;;;;5.15;4.65;;;11.60;99.90;;;;;;4997004;28;20037;-78
2022/09/29 09:54:35;;;;;;;4.90;4.40;;;11.80;99.90;;;;;;5013528;28;20042;-78
2022/09/29 09:57:11;;;;;;;5.05;4.55;;;11.90;99.90;;;;;;5012766;28;20045;-78
2022/09/29 10:00:08;;;;;;;4.80;4.40;;;12.10;99.90;;;;;;5013310;28;20046;-78
2022/09/29 10:02:38;;;;;;;4.10;3.70;;;12.10;99.90;;;;;;4986070;28;20054;-78
2022/09/29 10:05:11;;;;;;;4.22;3.80;;;12.30;99.90;;;;;;5012937;28;20038;-78
2022/09/29 10:07:37;;;;;;;4.32;3.90;;;12.50;99.90;;;;;;5011884;28;20053;-78
2022/09/29 10:10:12;;;;;;;4.03;3.58;;;12.70;99.90;;;;;;5012633;28;20045;-77
2022/09/29 10:12:38;;;;;;;4.22;3.60;;;12.80;99.90;;;;;;5012625;28;20408;-78
2022/09/29 10:15:17;;;;;;;4.18;3.78;;;13.00;99.90;;;;;;5012292;28;20038;-78
2022/09/29 10:17:49;;;;;;;4.15;3.58;;;13.10;99.90;;;;;;5012632;28;20444;-77
2022/09/29 10:20:31;;;;;;;3.45;3.15;;;13.30;99.90;;;;;;5012420;28;20399;-77
2022/09/29 10:23:24;;;;;;;3.63;3.20;;;13.30;99.90;;;;;;5011956;28;20042;-77
2022/09/29 10:26:13;;;;;;;3.72;3.28;;;13.40;99.90;;;;;;5011880;28;20516;-77
2022/09/29 10:28:52;;;;;;;3.45;3.15;;;13.50;99.90;;;;;;5011671;28;20096;-77
2022/09/29 10:31:36;;;;;;;3.08;2.70;;;13.60;99.90;;;;;;5011776;28;20045;-77
2022/09/29 10:34:12;;;;;;;3.50;3.10;;;13.80;99.90;;;;;;5011994;28;20038;-77
2022/09/29 10:37:00;;;;;;;3.17;2.53;;;13.90;99.90;;;;;;5011730;28;20052;-77
2022/09/29 10:40:01;;;;;;;2.17;1.73;;;14.00;99.90;;;;;;5011979;28;20124;-77
2022/09/29 10:42:39;;;;;;;2.63;2.10;;;14.20;99.90;;;;;;4995271;28;20037;-77
2022/09/29 10:45:25;;;;;;;2.10;1.67;;;14.40;99.90;;;;;;4995448;28;20045;-77
2022/09/29 10:47:57;;;;;;;2.40;1.92;;;14.60;99.90;;;;;;5011762;28;20057;-77
2022/09/29 10:50:27;;;;;;;1.80;1.70;;;14.70;99.90;;;;;;4995060;28;20042;-77
2022/09/29 10:52:56;;;;;;;2.00;1.80;;;14.80;99.90;;;;;;4995042;28;20116;-77
2022/09/29 10:55:27;;;;;;;2.55;1.90;;;14.90;99.90;;;;;;5011445;28;20038;-77
2022/09/29 10:57:57;;;;;;;2.38;1.90;;;15.10;99.90;;;;;;4994926;28;20038;-77
2022/09/29 11:00:43;;;;;;;2.38;2.17;;;15.10;99.90;;;;;;5011593;28;20129;-77
2022/09/29 11:03:22;;;;;;;2.75;2.40;;;15.10;99.90;;;;;;5011178;28;20088;-77
2022/09/29 11:05:58;;;;;;;2.80;2.50;;;15.10;99.90;;;;;;5011476;28;20469;-77
2022/09/29 11:08:26;;;;;;;4.15;3.00;;;15.20;99.90;;;;;;4994612;28;20049;-77
2022/09/29 11:11:26;;;;;;;3.33;2.72;;;15.40;99.90;;;;;;4994689;28;20124;-77
2022/09/29 11:13:53;;;;;;;2.75;2.40;;;15.70;99.90;;;;;;4994706;28;20040;-77
2022/09/29 11:16:50;;;;;;;2.53;2.30;;;15.90;99.90;;;;;;4994818;28;20068;-77
2022/09/29 11:19:15;;;;;;;2.55;2.25;;;16.10;99.90;;;;;;5011028;28;20041;-77
2022/09/29 11:21:41;;;;;;;2.50;2.10;;;16.30;99.90;;;;;;4994680;28;20046;-76
2022/09/29 11:24:36;;;;;;;2.60;2.03;;;16.20;99.90;;;;;;5011162;28;20139;-77
2022/09/29 11:27:25;;;;;;;2.88;2.00;;;16.10;99.90;;;;;;5010719;28;20153;-76
2022/09/29 11:30:05;;;;;;;2.25;1.67;;;16.20;99.90;;;;;;4984120;28;20088;-76
2022/09/29 11:32:37;;;;;;;2.72;2.13;;;16.40;99.90;;;;;;5011058;28;20448;-76
2022/09/29 11:35:25;;;;;;;2.30;2.10;;;16.70;99.90;;;;;;5011168;28;20092;-76
2022/09/29 11:38:19;;;;;;;2.00;1.80;;;16.60;99.90;;;;;;5010857;28;20396;-76
2022/09/29 11:40:59;;;;;;;2.05;1.80;;;16.50;99.90;;;;;;4994397;28;20411;-76
2022/09/29 11:43:49;;;;;;;2.88;1.80;;;16.70;99.90;;;;;;4994490;28;20512;-77
2022/09/29 11:46:24;;;;;;;1.98;1.67;;;16.90;99.90;;;;;;4994402;28;20127;-77
2022/09/29 11:48:53;;;;;;;2.20;2.00;;;17.00;99.90;;;;;;5010400;28;20180;-77
2022/09/29 11:51:52;;;;;;;2.40;2.10;;;17.20;99.90;;;;;;4994134;28;20050;-77
2022/09/29 11:54:56;;;;;;;2.17;1.85;;;17.30;99.90;;;;;;5010680;28;20038;-77
2022/09/29 11:58:16;;;;;;;2.03;1.80;;;17.00;99.90;;;;;;4994056;28;20034;-77
2022/09/29 12:01:00;;;;;;;3.03;2.13;;;16.80;99.90;;;;;;4919305;29;20043;-77
2022/09/29 12:03:36;;;;;;;2.28;1.98;;;16.90;99.90;;;;;;5004046;28;20054;-77
2022/09/29 12:06:32;;;;;;;2.42;1.83;;;17.10;99.90;;;;;;5010511;28;20052;-77
2022/09/29 12:09:21;;;;;;;1.70;1.42;;;17.30;99.90;;;;;;4993906;28;20049;-77
2022/09/29 12:12:04;;;;;;;2.30;1.52;;;17.70;99.90;;;;;;5010705;28;20037;-77
2022/09/29 12:15:14;;;;;;;1.88;1.48;;;17.80;99.90;;;;;;4994138;28;20088;-77
2022/09/29 12:18:06;;;;;;;1.95;1.55;;;17.90;99.90;;;;;;5010238;28;20042;-77
2022/09/29 12:20:40;;;;;;;1.70;1.35;;;17.80;99.90;;;;;;5010318;28;20042;-77
2022/09/29 12:23:10;;;;;;;2.00;1.60;;;17.70;99.90;;;;;;5010744;28;20092;-76
2022/09/29 12:25:42;;;;;;;1.50;1.40;;;17.60;99.90;;;;;;5010563;28;20496;-76
2022/09/29 12:28:16;;;;;;;1.92;1.42;;;17.50;99.90;;;;;;5010291;28;20124;-77
2022/09/29 12:30:58;;;;;;;2.38;1.13;;;17.50;99.90;;;;;;5011634;28;20451;-77
2022/09/29 12:33:41;;;;;;;1.48;1.38;;;17.50;99.90;;;;;;5014489;28;20373;-77
2022/09/29 12:36:42;;;;;;;1.20;1.10;;;17.50;99.90;;;;;;4997689;28;20037;-77
2022/09/29 12:39:44;;;;;;;1.20;1.00;;;17.50;99.90;;;;;;4972585;28;20050;-77
2022/09/29 12:42:32;;;;;;;1.30;1.00;;;17.50;99.90;;;;;;4974162;28;20128;-77
2022/09/29 12:45:18;;;;;;;1.58;1.20;;;17.50;99.90;;;;;;5013867;28;20041;-77
2022/09/29 12:48:05;;;;;;;1.60;1.10;;;17.60;99.90;;;;;;5013685;28;20076;-77
2022/09/29 12:50:40;;;;;;;1.17;1.00;;;17.70;99.90;;;;;;4997456;28;20447;-77
2022/09/29 12:53:20;;;;;;;1.17;0.95;;;17.90;99.90;;;;;;5013704;28;20539;-76
2022/09/29 12:55:57;;;;;;;2.35;1.05;;;18.00;99.90;;;;;;5013648;28;20048;-77
2022/09/29 12:58:44;;;;;;;1.60;1.17;;;17.90;99.90;;;;;;5013400;28;20492;-77
2022/09/29 13:01:21;;;;;;;1.15;0.90;;;17.80;99.90;;;;;;5013427;28;20096;-77
2022/09/29 13:04:11;;;;;;;1.50;0.85;;;17.80;99.90;;;;;;5013521;28;20049;-77
2022/09/29 13:07:06;;;;;;;0.70;0.57;;;17.90;99.90;;;;;;5013671;28;20488;-77
2022/09/29 13:10:00;;;;;;;0.68;0.50;;;18.00;99.90;;;;;;5013440;28;20042;-77
2022/09/29 13:12:55;;;;;;;1.50;0.95;;;17.80;99.90;;;;;;5013338;28;20096;-77
2022/09/29 13:15:40;;;;;;;1.83;1.40;;;17.70;99.90;;;;;;4996707;28;20065;-77
2022/09/29 13:18:24;;;;;;;1.70;1.48;;;17.50;99.90;;;;;;5013034;28;20420;-77
2022/09/29 13:21:27;;;;;;;1.30;1.08;;;17.30;99.90;;;;;;4996768;28;20501;-77
2022/09/29 13:24:05;;;;;;;1.63;1.20;;;17.20;99.90;;;;;;4996887;28;20069;-77
2022/09/29 13:26:53;;;;;;;2.28;1.65;;;17.20;99.90;;;;;;5013272;28;20069;-77
2022/09/29 13:29:25;;;;;;;1.42;1.10;;;17.30;99.90;;;;;;5013003;28;20042;-77